createdAt,value
2023-04-09T00:01:12.025Z,8.71
2023-04-09T00:06:17.739Z,8.67
2023-04-09T00:11:23.192Z,8.66
2023-04-09T00:16:28.577Z,8.62
2023-04-09T00:21:33.902Z,8.63
2023-04-09T00:26:39.435Z,8.64
2023-04-09T00:31:45.013Z,8.63
2023-04-09T00:36:50.652Z,8.60
2023-04-09T00:41:59.023Z,8.57
2023-04-09T00:47:05.319Z,8.50
2023-04-09T00:52:11.214Z,8.46
2023-04-09T00:57:16.886Z,8.37
2023-04-09T01:02:22.411Z,8.32
2023-04-09T01:07:36.168Z,8.28
2023-04-09T01:12:54.612Z,8.25
2023-04-09T01:18:06.783Z,8.22
2023-04-09T01:23:18.655Z,8.27
2023-04-09T01:28:30.434Z,8.25
2023-04-09T01:33:38.013Z,8.18
2023-04-09T01:38:45.410Z,8.12
2023-04-09T01:43:52.240Z,8.08
2023-04-09T01:48:58.660Z,8.15
2023-04-09T01:54:04.480Z,8.17
2023-04-09T01:59:10.322Z,8.09
2023-04-09T02:04:22.886Z,8.05
2023-04-09T02:09:31.543Z,8.04
2023-04-09T02:14:37.554Z,8.09
2023-04-09T02:19:47.660Z,8.13
2023-04-09T02:24:53.159Z,8.10
2023-04-09T02:29:58.550Z,8.11
2023-04-09T02:35:04.447Z,8.12
2023-04-09T02:40:11.961Z,8.06
2023-04-09T02:45:17.404Z,8.03
2023-04-09T02:50:23.194Z,8.02
2023-04-09T02:55:30.357Z,8.03
2023-04-09T03:00:36.045Z,7.97
2023-04-09T03:05:41.571Z,7.96
2023-04-09T03:10:47.020Z,7.96
2023-04-09T03:15:54.149Z,7.99
2023-04-09T03:20:59.727Z,8.00
2023-04-09T03:26:06.823Z,7.87
2023-04-09T03:31:18.505Z,7.83
2023-04-09T03:36:24.704Z,7.83
2023-04-09T03:41:35.689Z,7.70
2023-04-09T03:46:47.577Z,7.65
2023-04-09T03:51:55.177Z,7.74
2023-04-09T03:57:03.666Z,7.75
2023-04-09T04:02:09.316Z,7.66
2023-04-09T04:07:17.087Z,7.56
2023-04-09T04:12:33.926Z,7.46
2023-04-09T04:17:46.172Z,7.46
2023-04-09T04:23:02.039Z,7.49
2023-04-09T04:28:08.094Z,7.57
2023-04-09T04:33:17.661Z,7.63
2023-04-09T04:38:27.697Z,7.70
2023-04-09T04:43:33.925Z,7.83
2023-04-09T04:48:39.672Z,8.03
2023-04-09T04:53:45.514Z,8.12
2023-04-09T04:58:52.379Z,8.27
2023-04-09T05:03:58.730Z,8.42
2023-04-09T05:09:08.957Z,8.56
2023-04-09T05:14:21.526Z,8.72
2023-04-09T05:19:27.106Z,8.87
2023-04-09T05:24:38.702Z,8.98
2023-04-09T05:29:44.625Z,9.14
2023-04-09T05:34:50.848Z,9.30
2023-04-09T05:48:43.363Z,9.50
2023-04-09T05:53:50.006Z,9.78
2023-04-09T05:58:55.996Z,10.18
2023-04-09T06:04:02.190Z,10.99
2023-04-09T06:09:08.924Z,14.03
2023-04-09T06:14:18.460Z,15.72
2023-04-09T06:19:24.120Z,16.67
2023-04-09T06:24:31.301Z,16.56
2023-04-09T06:29:36.846Z,15.78
2023-04-09T06:34:42.692Z,15.12
2023-04-09T06:40:00.632Z,14.67
2023-04-09T06:45:08.788Z,14.21
2023-04-09T06:50:14.505Z,13.79
2023-04-09T06:55:20.353Z,13.51
2023-04-09T07:00:26.103Z,13.59
2023-04-09T07:05:31.674Z,14.09
2023-04-09T07:10:37.241Z,14.79
2023-04-09T07:15:42.853Z,14.81
2023-04-09T07:20:48.509Z,15.23
2023-04-09T07:25:54.394Z,15.51
2023-04-09T07:31:02.811Z,15.56
2023-04-09T07:36:08.626Z,15.61
2023-04-09T07:41:17.305Z,16.05
2023-04-09T07:46:23.022Z,16.64
2023-04-09T07:51:28.622Z,17.71
2023-04-09T07:56:33.966Z,18.98
2023-04-09T08:01:43.737Z,19.82
2023-04-09T08:06:55.729Z,21.47
2023-04-09T08:12:01.379Z,22.10
2023-04-09T08:17:14.137Z,21.89
2023-04-09T08:22:20.072Z,21.96
2023-04-09T08:27:25.554Z,21.22
2023-04-09T08:32:31.577Z,20.13
2023-04-09T08:37:37.082Z,19.11
2023-04-09T08:42:46.431Z,18.43
2023-04-09T08:47:53.316Z,17.99
2023-04-09T08:53:02.363Z,18.01
2023-04-09T08:58:09.596Z,17.92
2023-04-09T09:03:15.197Z,17.61
2023-04-09T09:08:26.840Z,17.45
2023-04-09T09:13:32.283Z,17.23
2023-04-09T09:18:42.101Z,16.59
2023-04-09T09:23:49.670Z,16.06
2023-04-09T09:28:56.503Z,15.80
2023-04-09T09:34:11.957Z,16.04
2023-04-09T09:39:18.040Z,17.18
2023-04-09T09:44:38.650Z,18.75
2023-04-09T09:49:44.279Z,19.08
2023-04-09T09:54:53.387Z,18.78
2023-04-09T10:00:04.243Z,18.30
2023-04-09T10:05:52.613Z,17.87
2023-04-09T10:11:08.942Z,17.29
2023-04-09T10:16:15.482Z,17.15
2023-04-09T10:21:31.112Z,17.38
2023-04-09T10:26:41.637Z,17.79
2023-04-09T10:31:53.804Z,19.19
2023-04-09T10:36:59.978Z,19.42
2023-04-09T10:42:12.481Z,19.28
2023-04-09T10:47:36.098Z,18.82
2023-04-09T10:52:42.551Z,18.39
2023-04-09T10:57:48.248Z,18.07
2023-04-09T11:03:19.327Z,17.69
2023-04-09T11:08:27.857Z,17.05
2023-04-09T11:13:34.338Z,16.64
2023-04-09T11:18:40.969Z,16.58
2023-04-09T11:23:53.014Z,16.67
2023-04-09T11:28:58.873Z,17.69
2023-04-09T11:34:04.751Z,18.91
2023-04-09T11:39:10.408Z,19.63
2023-04-09T11:44:15.944Z,20.60
2023-04-09T11:49:22.513Z,21.45
2023-04-09T11:54:33.275Z,21.37
2023-04-09T11:59:41.251Z,20.71
2023-04-09T12:04:52.212Z,19.90
2023-04-09T12:10:02.993Z,19.60
2023-04-09T12:15:18.637Z,19.51
2023-04-09T12:20:39.533Z,19.82
2023-04-09T12:25:46.866Z,19.75
2023-04-09T12:30:52.407Z,19.68
2023-04-09T12:35:58.518Z,19.47
2023-04-09T12:41:04.468Z,19.14
2023-04-09T12:46:10.311Z,18.95
2023-04-09T12:51:16.212Z,18.77
2023-04-09T12:56:21.710Z,18.45
2023-04-09T13:01:27.326Z,17.92
2023-04-09T13:06:32.822Z,17.57
2023-04-09T13:11:38.267Z,17.45
2023-04-09T13:16:43.728Z,17.29
2023-04-09T13:21:49.183Z,17.22
2023-04-09T13:26:54.532Z,17.13
2023-04-09T13:32:02.608Z,17.01
2023-04-09T13:37:09.259Z,16.74
2023-04-09T13:42:17.132Z,16.43
2023-04-09T13:47:24.111Z,15.87
2023-04-09T13:52:30.444Z,15.37
2023-04-09T13:57:36.495Z,15.01
2023-04-09T14:02:42.225Z,14.68
2023-04-09T14:07:47.691Z,14.41
2023-04-09T14:12:53.304Z,14.21
2023-04-09T14:17:58.762Z,14.05
2023-04-09T14:23:04.191Z,13.91
2023-04-09T14:28:09.621Z,13.77
2023-04-09T14:33:15.290Z,13.67
2023-04-09T14:38:20.693Z,13.60
2023-04-09T14:43:26.205Z,13.71
2023-04-09T14:48:31.850Z,13.71
2023-04-09T14:53:37.467Z,13.74
2023-04-09T14:58:43.239Z,13.91
2023-04-09T15:03:48.680Z,14.11
2023-04-09T15:08:54.615Z,14.23
2023-04-09T15:14:00.414Z,14.37
2023-04-09T15:19:05.816Z,14.48
2023-04-09T15:24:11.522Z,14.53
2023-04-09T15:29:16.880Z,14.59
2023-04-09T15:34:23.740Z,14.68
2023-04-09T15:39:29.488Z,14.82
2023-04-09T15:44:36.291Z,14.92
2023-04-09T15:49:41.765Z,15.09
2023-04-09T15:54:47.077Z,15.15
2023-04-09T15:59:53.751Z,15.18
2023-04-09T16:04:59.171Z,15.20
2023-04-09T16:10:05.759Z,15.09
2023-04-09T16:15:12.287Z,14.95
2023-04-09T16:20:17.992Z,14.78
2023-04-09T16:25:24.544Z,14.59
2023-04-09T16:30:31.672Z,14.38
2023-04-09T16:35:39.471Z,14.20
2023-04-09T16:40:45.935Z,14.02
2023-04-09T16:45:52.288Z,13.86
2023-04-09T16:50:57.854Z,13.71
2023-04-09T16:56:04.237Z,13.57
2023-04-09T17:01:09.607Z,13.42
2023-04-09T17:06:15.150Z,13.30
2023-04-09T17:11:21.306Z,13.18
2023-04-09T17:16:27.796Z,13.06
2023-04-09T17:21:33.409Z,12.97
2023-04-09T17:26:39.123Z,12.85
2023-04-09T17:31:45.037Z,12.76
2023-04-09T17:36:56.442Z,12.70
2023-04-09T17:42:04.044Z,12.65
2023-04-09T17:47:09.496Z,12.58
2023-04-09T17:52:16.384Z,12.52
2023-04-09T17:57:22.191Z,12.42
2023-04-09T18:02:27.847Z,12.29
2023-04-09T18:07:34.024Z,12.20
2023-04-09T18:12:39.587Z,12.07
2023-04-09T18:17:45.386Z,11.93
2023-04-09T18:22:52.155Z,11.83
2023-04-09T18:27:57.610Z,11.79
2023-04-09T18:33:03.087Z,11.73
2023-04-09T18:38:08.983Z,11.63
2023-04-09T18:43:14.445Z,11.53
2023-04-09T18:48:20.388Z,11.44
2023-04-09T18:53:26.691Z,11.28
2023-04-09T18:58:33.750Z,11.21
2023-04-09T19:03:39.846Z,11.10
2023-04-09T19:08:46.624Z,11.10
2023-04-09T19:13:52.563Z,11.02
2023-04-09T19:18:58.482Z,10.93
2023-04-09T19:24:06.037Z,10.83
2023-04-09T19:29:12.165Z,10.79
2023-04-09T19:34:17.614Z,10.78
2023-04-09T19:39:23.502Z,10.78
2023-04-09T19:44:29.357Z,10.73
2023-04-09T19:49:35.472Z,10.68
2023-04-09T19:54:41.263Z,10.66
2023-04-09T19:59:48.588Z,10.69
2023-04-09T20:04:55.685Z,10.71
2023-04-09T20:10:01.112Z,10.68
2023-04-09T20:15:09.977Z,10.62
2023-04-09T20:20:20.211Z,10.65
2023-04-09T20:25:26.075Z,10.68
2023-04-09T20:30:32.362Z,10.68
2023-04-09T20:35:38.033Z,10.62
2023-04-09T20:40:43.536Z,10.58
2023-04-09T20:46:12.690Z,10.57
2023-04-09T20:51:18.245Z,10.55
2023-04-09T20:56:23.758Z,10.43
2023-04-09T21:01:29.455Z,10.31
2023-04-09T21:06:36.297Z,10.18
2023-04-09T21:11:41.843Z,10.11
2023-04-09T21:16:47.509Z,9.97
2023-04-09T21:21:53.457Z,9.75
2023-04-09T21:26:59.052Z,9.49
2023-04-09T21:32:04.556Z,9.26
2023-04-09T21:37:10.417Z,9.13
2023-04-09T21:42:15.870Z,8.99
2023-04-09T21:47:22.831Z,8.81
2023-04-09T21:52:28.298Z,8.58
2023-04-09T21:57:33.740Z,8.37
2023-04-09T22:02:40.092Z,8.27
2023-04-09T22:07:45.914Z,8.11
2023-04-09T22:12:51.375Z,7.95
2023-04-09T22:17:57.785Z,7.75
2023-04-09T22:23:03.496Z,7.53
2023-04-09T22:28:09.007Z,7.35
2023-04-09T22:33:14.482Z,7.21
2023-04-09T22:38:20.957Z,7.13
2023-04-09T22:43:26.543Z,7.01
2023-04-09T22:48:35.843Z,6.93
2023-04-09T22:53:43.966Z,6.89
2023-04-09T22:58:49.511Z,6.86
2023-04-09T23:03:55.081Z,6.71
2023-04-09T23:09:00.484Z,6.60
2023-04-09T23:14:06.194Z,6.47
2023-04-09T23:19:11.724Z,6.39
2023-04-09T23:24:17.690Z,6.35
2023-04-09T23:29:23.336Z,6.30
2023-04-09T23:34:28.831Z,6.24
2023-04-09T23:39:34.440Z,6.18
2023-04-09T23:44:40.021Z,6.12
2023-04-09T23:49:45.392Z,6.09
2023-04-09T23:54:51.582Z,6.17
2023-04-09T23:59:57.213Z,6.07
